ADDS METAR Data INFO
IDs: Format: Raw Decoded Include TAF

Data at: 1751 UTC 21 Oct 2017

KMIC 211653Z 15010G19KT 10SM OVC013 17/13 A2966 RMK AO2 SLP040 T01670133
KMIC 211635Z 16012KT 10SM OVC015 17/14 A2966 RMK AO2 T01670139
KMIC 211553Z 16011G20KT 10SM BKN012 OVC017 16/14 A2966 RMK AO2 RAE34 SLP041 P0002 T01610139
KMIC 211535Z 16013G19KT 10SM BKN012 OVC055 16/14 A2966 RMK AO2 RAE34 P0002 T01610139
KMIC 211520Z 13011KT 6SM VCTS -RA BR BKN015 OVC055 16/13 A2964 RMK AO2 LTG DSNT NW P0002 T01560133
KMIC 211453Z 15010KT 10SM -RA FEW015 FEW035 OVC085 16/13 A2966 RMK AO2 LTG DSNT S SLP041 P0003 60032 T01560133 58001
KMIC 211443Z 15010KT 10SM -RA SCT015 SCT035 OVC080 16/13 A2966 RMK AO2 LTG DSNT S P0003 T01560128
KMIC 211421Z 16010KT 4SM -RA OVC014 16/13 A2967 RMK AO2 P0001 T01560128
KMIC 211353Z 16013KT 8SM -RA OVC016 15/13 A2967 RMK AO2 LTG DSNT W AND NW SLP043 P0012 T01500128
KMIC 211334Z 15013KT 3SM RA BR FEW011 BKN018 OVC090 15/13 A2966 RMK AO2 LTG DSNT W P0008 T01500128
KMIC 211307Z 14010KT 10SM -RA BKN013 OVC019 15/13 A2965 RMK AO2 LTG DSNT W-N P0001 T01500128
KMIC 211253Z 16014G18KT 4SM RA BR SCT012 BKN019 OVC048 15/13 A2966 RMK AO2 LTG DSNT ALQDS TSB06E21B25E40 SLP041 P0017 T01500128
KMIC 211242Z 16012KT 4SM RA BR FEW014 BKN025 OVC075 15/13 A2966 RMK AO2 LTG DSNT ALQDS TSB06E21B25E40 P0012 T01500128
KMIC 211212Z 15015G21KT 10SM -TSRA BKN026 BKN033 OVC045 17/11 A2966 RMK AO2 LTG DSNT SE-SW TSB06 P0001 T01670111
KMIC 211153Z 16013G19KT 10SM -RA OVC029 17/11 A2966 RMK AO2 LTG DSNT SE AND S RAB53 SLP042 P0000 60000 T01720106 10183 20167 55002
KMIC 211053Z AUTO 15012KT 10SM BKN032 BKN039 OVC055 17/10 A2966 RMK AO2 SLP040 T01720100
KMIC 210953Z AUTO 14009KT 10SM FEW038 17/10 A2966 RMK AO2 RAB20E31 SLP041 P0000 T01670100
KMIC 210853Z AUTO 14011KT 10SM CLR 17/10 A2967 RMK AO2 SLP043 T01720100 58012
KMIC 210753Z AUTO 15012KT 10SM FEW110 18/11 A2969 RMK AO2 SLP049 T01780106
KMIC 210653Z AUTO 16012KT 10SM CLR 18/11 A2970 RMK AO2 SLP053 T01780106
KMIC 210553Z AUTO 16012KT 10SM SCT110 18/11 A2970 RMK AO2 RAB22E47 SLP054 P0000 60000 T01780106 10217 20172 402560100 50001
KMIC 210453Z AUTO 17013G21KT 10SM FEW110 19/09 A2971 RMK AO2 SLP056 T01890094
KMIC 210353Z AUTO 18014G23KT 10SM FEW120 19/09 A2971 RMK AO2 PK WND 19027/0333 SLP058 T01940089
KMIC 210253Z AUTO 17014G22KT 10SM CLR 19/08 A2970 RMK AO2 SLP055 T01940078 50001
KMIC 210153Z AUTO 16012G20KT 10SM CLR 19/07 A2971 RMK AO2 SLP057 T01940072
KMIC 210053Z 16014KT 10SM CLR 21/07 A2971 RMK AO2 SLP057 T02060072
KMIC 202353Z 16014G20KT 10SM CLR 22/06 A2970 RMK AO2 PK WND 16026/2312 SLP056 T02170061 10256 20211 56009
KMIC 202253Z AUTO 16015G24KT 10SM CLR 23/06 A2970 RMK AO2 SLP055 T02330061
KMIC 202153Z AUTO 17013G21KT 10SM CLR 24/08 A2971 RMK AO2 PK WND 16026/2117 SLP058 T02390078
KMIC 202053Z AUTO 17018G26KT 10SM CLR 24/08 A2973 RMK AO2 PK WND 17026/2033 SLP064 T02440078 56024
KMIC 201953Z 16014G23KT 10SM CLR 26/09 A2975 RMK AO2 PK WND 18030/1905 SLP070 T02560094
KMIC 201853Z 18016G25KT 10SM CLR 24/09 A2977 RMK AO2 PK WND 17028/1842 SLP078 T02440089
KMIC 201753Z 18012G21KT 10SM CLR 23/09 A2980 RMK AO2 SLP090 T02280094 10233 20111 58022
KMIC 201653Z 19013G19KT 10SM CLR 22/09 A2983 RMK AO2 SLP098 T02220094
KMIC 201553Z 19012G19KT 10SM CLR 20/09 A2985 RMK AO2 SLP108 T02000094
KMIC 201453Z 19011G18KT 10SM CLR 18/09 A2987 RMK AO2 SLP113 T01780094 58001
KMIC 201353Z 18011KT 10SM CLR 16/09 A2987 RMK AO2 SLP115 T01560089
KMIC 201253Z 17007KT 10SM CLR 13/08 A2987 RMK AO2 SLP115 T01330083
KMIC 201153Z 14004KT 10SM CLR 11/08 A2987 RMK AO2 SLP115 T01110078 10133 20100 56004
KMIC 201053Z AUTO 15006KT 10SM CLR 12/08 A2987 RMK AO2 SLP115 T01170083
KMIC 200953Z AUTO 15005KT 10SM CLR 11/08 A2987 RMK AO2 SLP115 T01060078
KMIC 200853Z AUTO 14003KT 10SM CLR 11/08 A2988 RMK AO2 SLP118 T01060078 58006
KMIC 200753Z AUTO 14004KT 10SM CLR 12/07 A2989 RMK AO2 SLP120 T01170072
KMIC 200653Z AUTO 15004KT 10SM CLR 12/07 A2989 RMK AO2 SLP122 T01220067
KMIC 200553Z AUTO 14004KT 10SM CLR 13/06 A2990 RMK AO2 SLP124 T01330056 10178 20128 402280033 58006